sensor_id;sensor_type;location;lat;lon;timestamp;P1;durP1;ratioP1;P2;durP2;ratioP2
26211;SDS011;13951;49.516;6.094;2023-11-19T00:02:30;0.30;;;0.30;;
26211;SDS011;13951;49.516;6.094;2023-11-19T00:05:03;0.30;;;0.30;;
26211;SDS011;13951;49.516;6.094;2023-11-19T00:07:39;0.30;;;0.30;;
26211;SDS011;13951;49.516;6.094;2023-11-19T00:10:16;0.30;;;0.30;;
26211;SDS011;13951;49.516;6.094;2023-11-19T00:12:53;0.40;;;0.40;;
26211;SDS011;13951;49.516;6.094;2023-11-19T00:15:26;0.30;;;0.30;;
26211;SDS011;13951;49.516;6.094;2023-11-19T00:18:00;0.40;;;0.40;;
26211;SDS011;13951;49.516;6.094;2023-11-19T00:20:37;0.40;;;0.40;;
26211;SDS011;13951;49.516;6.094;2023-11-19T00:23:10;1.07;;;0.40;;
26211;SDS011;13951;49.516;6.094;2023-11-19T00:25:44;0.30;;;0.30;;
26211;SDS011;13951;49.516;6.094;2023-11-19T00:28:17;0.57;;;0.40;;
26211;SDS011;13951;49.516;6.094;2023-11-19T00:30:50;1.80;;;0.40;;
26211;SDS011;13951;49.516;6.094;2023-11-19T00:33:25;0.50;;;0.43;;
26211;SDS011;13951;49.516;6.094;2023-11-19T00:35:58;0.47;;;0.30;;
26211;SDS011;13951;49.516;6.094;2023-11-19T00:38:31;0.40;;;0.40;;
26211;SDS011;13951;49.516;6.094;2023-11-19T00:41:05;0.40;;;0.40;;
26211;SDS011;13951;49.516;6.094;2023-11-19T00:43:38;1.50;;;0.47;;
26211;SDS011;13951;49.516;6.094;2023-11-19T00:46:12;1.90;;;0.40;;
26211;SDS011;13951;49.516;6.094;2023-11-19T00:48:46;0.73;;;0.50;;
26211;SDS011;13951;49.516;6.094;2023-11-19T00:51:19;0.30;;;0.30;;
26211;SDS011;13951;49.516;6.094;2023-11-19T00:53:52;0.47;;;0.40;;
26211;SDS011;13951;49.516;6.094;2023-11-19T00:56:26;2.53;;;0.40;;
26211;SDS011;13951;49.516;6.094;2023-11-19T00:59:00;0.83;;;0.50;;
26211;SDS011;13951;49.516;6.094;2023-11-19T01:01:33;1.03;;;0.60;;
26211;SDS011;13951;49.516;6.094;2023-11-19T01:04:07;1.60;;;0.70;;
26211;SDS011;13951;49.516;6.094;2023-11-19T01:06:41;0.80;;;0.70;;
26211;SDS011;13951;49.516;6.094;2023-11-19T01:09:17;0.70;;;0.70;;
26211;SDS011;13951;49.516;6.094;2023-11-19T01:11:51;1.43;;;0.80;;
26211;SDS011;13951;49.516;6.094;2023-11-19T01:14:24;0.87;;;0.87;;
26211;SDS011;13951;49.516;6.094;2023-11-19T01:16:57;2.47;;;0.90;;
26211;SDS011;13951;49.516;6.094;2023-11-19T01:19:31;1.50;;;1.13;;
26211;SDS011;13951;49.516;6.094;2023-11-19T01:22:04;1.90;;;1.40;;
26211;SDS011;13951;49.516;6.094;2023-11-19T01:24:38;3.57;;;1.50;;
26211;SDS011;13951;49.516;6.094;2023-11-19T01:27:11;3.00;;;1.40;;
26211;SDS011;13951;49.516;6.094;2023-11-19T01:29:45;2.27;;;1.60;;
26211;SDS011;13951;49.516;6.094;2023-11-19T01:32:18;2.20;;;1.70;;
26211;SDS011;13951;49.516;6.094;2023-11-19T01:34:51;2.37;;;1.87;;
26211;SDS011;13951;49.516;6.094;2023-11-19T01:37:25;1.57;;;1.33;;
26211;SDS011;13951;49.516;6.094;2023-11-19T01:39:58;3.77;;;1.80;;
26211;SDS011;13951;49.516;6.094;2023-11-19T01:42:36;2.90;;;2.27;;
26211;SDS011;13951;49.516;6.094;2023-11-19T01:45:10;3.40;;;2.47;;
26211;SDS011;13951;49.516;6.094;2023-11-19T01:47:49;3.27;;;2.77;;
26211;SDS011;13951;49.516;6.094;2023-11-19T01:50:24;3.43;;;2.50;;
26211;SDS011;13951;49.516;6.094;2023-11-19T01:52:58;5.50;;;3.20;;
26211;SDS011;13951;49.516;6.094;2023-11-19T01:55:31;3.23;;;2.87;;
26211;SDS011;13951;49.516;6.094;2023-11-19T01:58:06;4.67;;;3.07;;
26211;SDS011;13951;49.516;6.094;2023-11-19T02:00:40;4.40;;;2.90;;
26211;SDS011;13951;49.516;6.094;2023-11-19T02:03:14;3.30;;;2.67;;
26211;SDS011;13951;49.516;6.094;2023-11-19T02:05:48;3.50;;;2.07;;
26211;SDS011;13951;49.516;6.094;2023-11-19T02:08:23;2.33;;;2.00;;
26211;SDS011;13951;49.516;6.094;2023-11-19T02:10:56;2.77;;;1.80;;
26211;SDS011;13951;49.516;6.094;2023-11-19T02:13:30;2.80;;;1.80;;
26211;SDS011;13951;49.516;6.094;2023-11-19T02:16:03;1.80;;;1.50;;
26211;SDS011;13951;49.516;6.094;2023-11-19T02:18:37;1.83;;;1.60;;
26211;SDS011;13951;49.516;6.094;2023-11-19T02:21:10;3.07;;;1.90;;
26211;SDS011;13951;49.516;6.094;2023-11-19T02:23:44;1.83;;;1.67;;
26211;SDS011;13951;49.516;6.094;2023-11-19T02:26:26;3.00;;;2.03;;
26211;SDS011;13951;49.516;6.094;2023-11-19T02:29:02;3.67;;;2.17;;
26211;SDS011;13951;49.516;6.094;2023-11-19T02:31:39;3.03;;;2.10;;
26211;SDS011;13951;49.516;6.094;2023-11-19T02:34:13;4.57;;;2.70;;
26211;SDS011;13951;49.516;6.094;2023-11-19T02:36:46;4.17;;;2.40;;
26211;SDS011;13951;49.516;6.094;2023-11-19T02:39:20;4.13;;;2.27;;
26211;SDS011;13951;49.516;6.094;2023-11-19T02:41:54;3.73;;;2.80;;
26211;SDS011;13951;49.516;6.094;2023-11-19T02:44:27;4.13;;;2.30;;
26211;SDS011;13951;49.516;6.094;2023-11-19T02:47:04;3.73;;;2.57;;
26211;SDS011;13951;49.516;6.094;2023-11-19T02:49:40;3.57;;;2.17;;
26211;SDS011;13951;49.516;6.094;2023-11-19T02:52:14;3.63;;;2.10;;
26211;SDS011;13951;49.516;6.094;2023-11-19T02:54:47;2.73;;;1.80;;
26211;SDS011;13951;49.516;6.094;2023-11-19T02:57:22;3.40;;;1.70;;
26211;SDS011;13951;49.516;6.094;2023-11-19T02:59:57;3.70;;;1.73;;
26211;SDS011;13951;49.516;6.094;2023-11-19T03:02:31;2.13;;;1.93;;
26211;SDS011;13951;49.516;6.094;2023-11-19T03:05:16;2.53;;;2.20;;
26211;SDS011;13951;49.516;6.094;2023-11-19T03:07:49;5.20;;;2.07;;
26211;SDS011;13951;49.516;6.094;2023-11-19T03:10:22;3.17;;;2.00;;
26211;SDS011;13951;49.516;6.094;2023-11-19T03:12:56;3.37;;;2.30;;
26211;SDS011;13951;49.516;6.094;2023-11-19T03:15:29;2.53;;;2.03;;
26211;SDS011;13951;49.516;6.094;2023-11-19T03:18:03;5.23;;;2.10;;
26211;SDS011;13951;49.516;6.094;2023-11-19T03:20:36;2.10;;;1.73;;
26211;SDS011;13951;49.516;6.094;2023-11-19T03:23:10;2.27;;;1.47;;
26211;SDS011;13951;49.516;6.094;2023-11-19T03:25:43;1.60;;;1.50;;
26211;SDS011;13951;49.516;6.094;2023-11-19T03:28:17;1.90;;;1.70;;
26211;SDS011;13951;49.516;6.094;2023-11-19T03:30:50;2.40;;;1.40;;
26211;SDS011;13951;49.516;6.094;2023-11-19T03:33:23;1.80;;;1.50;;
26211;SDS011;13951;49.516;6.094;2023-11-19T03:35:58;3.40;;;1.37;;
26211;SDS011;13951;49.516;6.094;2023-11-19T03:38:31;2.90;;;1.50;;
26211;SDS011;13951;49.516;6.094;2023-11-19T03:41:11;1.30;;;1.20;;
26211;SDS011;13951;49.516;6.094;2023-11-19T03:43:45;3.13;;;1.50;;
26211;SDS011;13951;49.516;6.094;2023-11-19T03:48:52;4.70;;;1.73;;
26211;SDS011;13951;49.516;6.094;2023-11-19T03:51:25;3.83;;;1.83;;
26211;SDS011;13951;49.516;6.094;2023-11-19T03:53:59;2.87;;;1.63;;
26211;SDS011;13951;49.516;6.094;2023-11-19T03:56:32;4.77;;;2.17;;
26211;SDS011;13951;49.516;6.094;2023-11-19T03:59:05;4.87;;;2.17;;
26211;SDS011;13951;49.516;6.094;2023-11-19T04:01:40;3.50;;;2.17;;
26211;SDS011;13951;49.516;6.094;2023-11-19T04:04:14;4.97;;;2.10;;
26211;SDS011;13951;49.516;6.094;2023-11-19T04:06:47;3.67;;;1.80;;
26211;SDS011;13951;49.516;6.094;2023-11-19T04:09:21;2.93;;;1.93;;
26211;SDS011;13951;49.516;6.094;2023-11-19T04:11:54;3.93;;;1.77;;
26211;SDS011;13951;49.516;6.094;2023-11-19T04:14:28;6.27;;;2.13;;
26211;SDS011;13951;49.516;6.094;2023-11-19T04:17:01;4.57;;;2.20;;
26211;SDS011;13951;49.516;6.094;2023-11-19T04:19:35;4.47;;;2.07;;
26211;SDS011;13951;49.516;6.094;2023-11-19T04:22:08;3.37;;;1.90;;
26211;SDS011;13951;49.516;6.094;2023-11-19T04:24:42;5.10;;;2.00;;
26211;SDS011;13951;49.516;6.094;2023-11-19T04:27:18;4.10;;;1.70;;
26211;SDS011;13951;49.516;6.094;2023-11-19T04:29:51;7.13;;;1.90;;
26211;SDS011;13951;49.516;6.094;2023-11-19T04:32:27;6.17;;;2.20;;
26211;SDS011;13951;49.516;6.094;2023-11-19T04:35:00;2.57;;;1.40;;
26211;SDS011;13951;49.516;6.094;2023-11-19T04:37:33;4.60;;;1.37;;
26211;SDS011;13951;49.516;6.094;2023-11-19T04:40:08;4.70;;;1.60;;
26211;SDS011;13951;49.516;6.094;2023-11-19T04:42:42;5.53;;;1.50;;
26211;SDS011;13951;49.516;6.094;2023-11-19T04:45:15;4.23;;;1.70;;
26211;SDS011;13951;49.516;6.094;2023-11-19T04:47:49;4.93;;;1.67;;
26211;SDS011;13951;49.516;6.094;2023-11-19T04:50:22;3.23;;;1.77;;
26211;SDS011;13951;49.516;6.094;2023-11-19T04:52:56;7.77;;;1.77;;
26211;SDS011;13951;49.516;6.094;2023-11-19T04:55:32;3.77;;;1.80;;
26211;SDS011;13951;49.516;6.094;2023-11-19T04:58:05;3.60;;;1.50;;
26211;SDS011;13951;49.516;6.094;2023-11-19T05:00:39;4.63;;;1.50;;
26211;SDS011;13951;49.516;6.094;2023-11-19T05:03:12;5.83;;;1.80;;
26211;SDS011;13951;49.516;6.094;2023-11-19T05:05:45;2.97;;;1.50;;
26211;SDS011;13951;49.516;6.094;2023-11-19T05:08:19;8.33;;;1.60;;
26211;SDS011;13951;49.516;6.094;2023-11-19T05:10:52;5.33;;;1.60;;
26211;SDS011;13951;49.516;6.094;2023-11-19T05:13:25;4.87;;;1.50;;
26211;SDS011;13951;49.516;6.094;2023-11-19T05:15:59;3.53;;;1.60;;
26211;SDS011;13951;49.516;6.094;2023-11-19T05:18:32;2.73;;;1.60;;
26211;SDS011;13951;49.516;6.094;2023-11-19T05:21:06;4.47;;;1.37;;
26211;SDS011;13951;49.516;6.094;2023-11-19T05:23:39;6.93;;;2.23;;
26211;SDS011;13951;49.516;6.094;2023-11-19T05:26:17;5.03;;;1.70;;
26211;SDS011;13951;49.516;6.094;2023-11-19T05:28:51;2.40;;;1.43;;
26211;SDS011;13951;49.516;6.094;2023-11-19T05:31:24;3.33;;;1.43;;
26211;SDS011;13951;49.516;6.094;2023-11-19T05:33:58;4.03;;;1.57;;
26211;SDS011;13951;49.516;6.094;2023-11-19T05:36:32;5.47;;;1.70;;
26211;SDS011;13951;49.516;6.094;2023-11-19T05:39:05;3.03;;;1.50;;
26211;SDS011;13951;49.516;6.094;2023-11-19T05:41:38;3.73;;;1.70;;
26211;SDS011;13951;49.516;6.094;2023-11-19T05:44:12;4.83;;;1.80;;
26211;SDS011;13951;49.516;6.094;2023-11-19T05:46:45;5.13;;;2.00;;
26211;SDS011;13951;49.516;6.094;2023-11-19T05:49:18;6.77;;;1.90;;
26211;SDS011;13951;49.516;6.094;2023-11-19T05:51:52;8.10;;;2.50;;
26211;SDS011;13951;49.516;6.094;2023-11-19T05:54:29;11.00;;;2.93;;
26211;SDS011;13951;49.516;6.094;2023-11-19T05:57:07;5.00;;;2.20;;
26211;SDS011;13951;49.516;6.094;2023-11-19T05:59:41;6.90;;;2.00;;
26211;SDS011;13951;49.516;6.094;2023-11-19T06:02:16;6.27;;;1.50;;
26211;SDS011;13951;49.516;6.094;2023-11-19T06:04:49;4.70;;;1.57;;
26211;SDS011;13951;49.516;6.094;2023-11-19T06:07:22;5.00;;;2.00;;
26211;SDS011;13951;49.516;6.094;2023-11-19T06:09:56;5.07;;;1.47;;
26211;SDS011;13951;49.516;6.094;2023-11-19T06:12:29;6.00;;;1.70;;
26211;SDS011;13951;49.516;6.094;2023-11-19T06:15:07;4.60;;;1.37;;
26211;SDS011;13951;49.516;6.094;2023-11-19T06:17:41;3.47;;;1.20;;
26211;SDS011;13951;49.516;6.094;2023-11-19T06:20:15;2.67;;;1.23;;
26211;SDS011;13951;49.516;6.094;2023-11-19T06:22:49;3.73;;;1.20;;
26211;SDS011;13951;49.516;6.094;2023-11-19T06:25:23;3.43;;;1.30;;
26211;SDS011;13951;49.516;6.094;2023-11-19T06:27:56;4.20;;;1.40;;
26211;SDS011;13951;49.516;6.094;2023-11-19T06:30:29;4.80;;;1.20;;
26211;SDS011;13951;49.516;6.094;2023-11-19T06:33:05;2.50;;;1.10;;
26211;SDS011;13951;49.516;6.094;2023-11-19T06:35:38;3.53;;;1.23;;
26211;SDS011;13951;49.516;6.094;2023-11-19T06:38:12;6.47;;;1.27;;
26211;SDS011;13951;49.516;6.094;2023-11-19T06:40:46;4.73;;;1.40;;
